Time;durP1;ratioP1;P1;durP2;ratioP2;P2;SDS_P1;SDS_P2;PMS_P1;PMS_P2;Temp;Humidity;BMP_temperature;BMP_pressure;BME280_temperature;BME280_humidity;BME280_pressure;Samples;Min_cycle;Max_cycle;Signal;HPM_P1;HPM_P2
2024/01/15 00:02:19;;;;;;;0.80;0.80;;;;;;;-1.91;100.00;98125.16;5046397;27;20089;-58
2024/01/15 00:04:46;;;;;;;0.80;0.80;;;;;;;-1.88;100.00;98132.66;5025565;27;20056;-59
2024/01/15 00:07:16;;;;;;;1.00;1.00;;;;;;;-1.73;100.00;98128.13;5038800;27;20049;-58
2024/01/15 00:09:43;;;;;;;0.90;0.90;;;;;;;-1.75;100.00;98124.06;5036789;27;20049;-58
2024/01/15 00:12:10;;;;;;;0.90;0.90;;;;;;;-1.68;100.00;98111.78;5024960;27;20082;-58
2024/01/15 00:14:37;;;;;;;0.85;0.85;;;;;;;-1.61;100.00;98107.41;5035078;27;20060;-58
2024/01/15 00:17:04;;;;;;;0.80;0.80;;;;;;;-1.60;100.00;98111.66;5042715;27;20133;-59
2024/01/15 00:19:32;;;;;;;0.90;0.90;;;;;;;-1.56;100.00;98107.63;5037395;27;20114;-58
2024/01/15 00:21:59;;;;;;;0.90;0.90;;;;;;;-1.63;100.00;98112.03;5036428;27;20041;-59
2024/01/15 00:24:27;;;;;;;0.90;0.90;;;;;;;-1.54;100.00;98121.41;5030215;27;20136;-59
2024/01/15 00:26:55;;;;;;;0.80;0.80;;;;;;;-1.58;100.00;98120.16;5025343;27;20705;-59
2024/01/15 00:29:22;;;;;;;0.90;0.90;;;;;;;-1.65;100.00;98108.78;5025697;27;20507;-59
2024/01/15 00:31:49;;;;;;;0.88;0.88;;;;;;;-1.57;100.00;98092.88;5037256;27;20132;-58
2024/01/15 00:34:16;;;;;;;0.90;0.90;;;;;;;-1.52;100.00;98093.13;5052455;27;20043;-59
2024/01/15 00:36:43;;;;;;;0.80;0.80;;;;;;;-1.57;100.00;98085.00;5027425;27;20555;-59
2024/01/15 00:39:11;;;;;;;0.75;0.75;;;;;;;-1.54;100.00;98084.59;5031153;27;20458;-59
2024/01/15 00:41:39;;;;;;;0.80;0.80;;;;;;;-1.54;100.00;98063.59;5037714;27;20509;-59
2024/01/15 00:44:07;;;;;;;0.90;0.90;;;;;;;-1.56;100.00;98070.03;5035371;27;20045;-59
2024/01/15 00:46:34;;;;;;;0.77;0.77;;;;;;;-1.56;100.00;98076.09;5063131;27;20082;-59
2024/01/15 00:49:01;;;;;;;0.80;0.80;;;;;;;-1.54;100.00;98075.91;5060772;27;20484;-59
2024/01/15 00:51:28;;;;;;;0.88;0.88;;;;;;;-1.53;100.00;98080.16;5043043;27;20057;-59
2024/01/15 00:53:55;;;;;;;0.90;0.90;;;;;;;-1.58;100.00;98080.72;5039220;27;20142;-59
2024/01/15 00:56:22;;;;;;;0.80;0.80;;;;;;;-1.71;100.00;98080.66;5038109;27;20047;-59
2024/01/15 00:58:50;;;;;;;0.90;0.90;;;;;;;-1.69;100.00;98081.28;5031824;27;20552;-59
2024/01/15 01:01:18;;;;;;;0.90;0.90;;;;;;;-1.74;100.00;98089.72;5053207;27;20565;-59
2024/01/15 01:03:46;;;;;;;1.00;1.00;;;;;;;-1.66;100.00;98075.63;5028489;27;20056;-59
2024/01/15 01:06:13;;;;;;;0.95;0.95;;;;;;;-1.76;100.00;98070.72;5028642;27;20433;-58
2024/01/15 01:08:40;;;;;;;0.85;0.85;;;;;;;-1.81;100.00;98083.63;5025887;27;20195;-59
2024/01/15 01:11:07;;;;;;;0.90;0.90;;;;;;;-1.87;100.00;98073.03;5043354;27;20049;-59
2024/01/15 01:13:34;;;;;;;0.80;0.80;;;;;;;-1.76;100.00;98075.97;5026833;27;20506;-59
2024/01/15 01:16:03;;;;;;;0.90;0.90;;;;;;;-1.86;100.00;98070.25;5040204;27;20133;-58
2024/01/15 01:18:30;;;;;;;0.80;0.80;;;;;;;-1.74;100.00;98067.91;5064387;27;20049;-59
2024/01/15 01:20:57;;;;;;;0.82;0.82;;;;;;;-1.80;100.00;98063.41;5025115;27;20125;-59
2024/01/15 01:23:24;;;;;;;0.95;0.95;;;;;;;-1.76;100.00;98057.56;5062610;27;20035;-59
2024/01/15 01:25:51;;;;;;;1.05;1.05;;;;;;;-1.80;100.00;98064.25;5074235;27;20037;-59
2024/01/15 01:28:18;;;;;;;0.98;0.98;;;;;;;-1.83;100.00;98066.41;5027297;27;20046;-59
2024/01/15 01:30:45;;;;;;;0.90;0.90;;;;;;;-1.85;100.00;98066.59;5047819;27;20080;-59
2024/01/15 01:33:13;;;;;;;0.98;0.98;;;;;;;-1.81;100.00;98067.03;5037849;27;20459;-59
2024/01/15 01:35:40;;;;;;;1.05;1.05;;;;;;;-1.65;100.00;98065.94;5044055;27;20046;-59
2024/01/15 01:38:07;;;;;;;1.00;1.00;;;;;;;-1.89;100.00;98064.56;5025818;27;20054;-59
2024/01/15 01:40:34;;;;;;;0.90;0.90;;;;;;;-1.83;100.00;98075.09;5048249;27;20052;-59
2024/01/15 01:43:01;;;;;;;0.90;0.90;;;;;;;-1.91;100.00;98071.81;5060973;27;20049;-59
2024/01/15 01:45:30;;;;;;;0.90;0.90;;;;;;;-1.98;100.00;98077.00;5058859;27;20085;-59
2024/01/15 01:47:57;;;;;;;1.00;1.00;;;;;;;-1.92;100.00;98080.69;5026102;27;20044;-59
2024/01/15 01:50:26;;;;;;;0.80;0.80;;;;;;;-1.86;100.00;98064.19;5035924;27;20404;-59
2024/01/15 01:52:53;;;;;;;0.90;0.90;;;;;;;-1.86;100.00;98069.44;5052978;27;20090;-59
2024/01/15 01:55:20;;;;;;;1.00;1.00;;;;;;;-1.91;100.00;98071.81;5050385;27;20041;-59
2024/01/15 01:57:47;;;;;;;0.90;0.90;;;;;;;-1.95;100.00;98060.88;5042914;27;20050;-58
2024/01/15 02:00:15;;;;;;;1.10;1.10;;;;;;;-1.90;100.00;98063.72;5050838;27;20072;-58
2024/01/15 02:02:42;;;;;;;1.00;1.00;;;;;;;-2.10;100.00;98068.84;5040870;27;20088;-58
2024/01/15 02:05:09;;;;;;;0.80;0.80;;;;;;;-2.07;100.00;98065.84;5069021;27;20041;-58
2024/01/15 02:07:37;;;;;;;0.88;0.88;;;;;;;-2.19;100.00;98070.00;5038302;27;20814;-58
2024/01/15 02:10:06;;;;;;;0.90;0.90;;;;;;;-2.17;100.00;98066.16;5056961;27;20403;-58
2024/01/15 02:12:33;;;;;;;1.00;1.00;;;;;;;-2.17;100.00;98054.88;5025305;27;20064;-58
2024/01/15 02:15:00;;;;;;;0.90;0.90;;;;;;;-2.24;100.00;98051.38;5035951;27;20388;-58
2024/01/15 02:17:27;;;;;;;0.80;0.80;;;;;;;-2.29;100.00;98054.56;5069349;27;20043;-58
2024/01/15 02:19:54;;;;;;;0.90;0.90;;;;;;;-2.22;100.00;98055.44;5026145;27;20067;-58
2024/01/15 02:22:21;;;;;;;1.00;1.00;;;;;;;-2.18;100.00;98055.84;5024690;27;20103;-59
2024/01/15 02:24:49;;;;;;;0.82;0.82;;;;;;;-2.17;100.00;98058.28;5045799;27;20515;-58
2024/01/15 02:27:16;;;;;;;0.90;0.90;;;;;;;-2.33;100.00;98049.88;5022490;27;20097;-58
2024/01/15 02:29:43;;;;;;;1.00;1.00;;;;;;;-2.21;100.00;98053.59;5046458;27;20136;-58
2024/01/15 02:32:10;;;;;;;1.08;1.08;;;;;;;-2.19;100.00;98044.53;5056636;27;20051;-58
2024/01/15 02:34:37;;;;;;;0.90;0.90;;;;;;;-2.12;100.00;98036.72;5064857;27;20039;-58
2024/01/15 02:37:05;;;;;;;0.90;0.90;;;;;;;-2.09;100.00;98046.84;5030702;27;20145;-58
2024/01/15 02:39:32;;;;;;;0.90;0.90;;;;;;;-2.12;100.00;98044.59;5024190;27;20837;-58
2024/01/15 02:42:00;;;;;;;0.80;0.80;;;;;;;-2.19;100.00;98043.75;5034133;27;20034;-58
2024/01/15 02:44:27;;;;;;;0.90;0.90;;;;;;;-2.19;100.00;98055.03;5033166;27;20052;-58
2024/01/15 02:46:54;;;;;;;0.80;0.80;;;;;;;-2.15;100.00;98046.78;5057555;27;20041;-58
2024/01/15 02:49:21;;;;;;;0.90;0.90;;;;;;;-2.19;100.00;98049.78;5029470;27;20124;-58
2024/01/15 02:51:48;;;;;;;1.00;1.00;;;;;;;-2.16;100.00;98053.84;5031015;27;20140;-58
2024/01/15 02:54:15;;;;;;;0.90;0.90;;;;;;;-2.29;100.00;98059.81;5038444;27;20051;-58
2024/01/15 02:56:42;;;;;;;1.00;1.00;;;;;;;-2.19;100.00;98060.28;5028587;27;20048;-58
2024/01/15 02:59:11;;;;;;;0.88;0.88;;;;;;;-2.13;100.00;98063.97;5019480;27;20132;-58
2024/01/15 03:01:38;;;;;;;0.85;0.85;;;;;;;-2.15;100.00;98065.16;5047755;27;20814;-58
2024/01/15 03:04:05;;;;;;;0.77;0.77;;;;;;;-2.14;100.00;98072.84;5036587;27;20485;-58
2024/01/15 03:06:32;;;;;;;0.90;0.90;;;;;;;-2.01;100.00;98066.91;5040917;27;20168;-58
2024/01/15 03:08:59;;;;;;;1.00;1.00;;;;;;;-2.08;100.00;98072.09;5079684;27;20074;-58
2024/01/15 03:11:26;;;;;;;0.90;0.90;;;;;;;-1.89;100.00;98067.19;5032365;27;20167;-58
2024/01/15 03:13:53;;;;;;;0.80;0.80;;;;;;;-2.13;100.00;98063.97;5024429;27;20100;-58
2024/01/15 03:16:22;;;;;;;1.00;1.00;;;;;;;-2.19;100.00;98054.25;5056161;27;20146;-58
2024/01/15 03:18:49;;;;;;;0.88;0.88;;;;;;;-2.14;100.00;98038.72;5048962;27;20052;-59
2024/01/15 03:21:16;;;;;;;1.00;1.00;;;;;;;-2.24;100.00;98056.63;5059358;27;20152;-58
2024/01/15 03:23:43;;;;;;;0.90;0.90;;;;;;;-2.16;100.00;98053.84;5027790;27;20504;-59
2024/01/15 03:26:10;;;;;;;0.90;0.90;;;;;;;-2.23;100.00;98053.78;5031855;27;20231;-58
2024/01/15 03:28:37;;;;;;;0.90;0.90;;;;;;;-2.24;100.00;98056.63;5053098;27;20048;-59
2024/01/15 03:31:04;;;;;;;1.00;1.00;;;;;;;-2.20;100.00;98050.81;5055615;27;20041;-58
2024/01/15 03:33:33;;;;;;;0.90;0.90;;;;;;;-2.28;100.00;98050.13;5045448;27;20053;-58
2024/01/15 03:36:00;;;;;;;0.85;0.85;;;;;;;-2.13;100.00;98052.66;5056450;27;20035;-58
2024/01/15 03:38:29;;;;;;;1.00;1.00;;;;;;;-2.20;100.00;98053.44;5049575;27;20490;-58
2024/01/15 03:40:56;;;;;;;0.93;0.93;;;;;;;-2.20;100.00;98047.34;5038375;27;20037;-58
2024/01/15 03:43:23;;;;;;;1.00;1.00;;;;;;;-2.02;100.00;98037.22;5044367;27;20255;-58
2024/01/15 03:45:50;;;;;;;0.90;0.90;;;;;;;-2.07;100.00;98041.38;5043683;27;20058;-58
2024/01/15 03:48:17;;;;;;;0.90;0.90;;;;;;;-2.08;100.00;98035.31;5057963;27;20134;-58
2024/01/15 03:50:45;;;;;;;0.82;0.82;;;;;;;-2.06;100.00;98038.59;5032064;27;20079;-58
2024/01/15 03:53:12;;;;;;;0.85;0.85;;;;;;;-1.91;100.00;98042.94;5026714;27;20159;-58
2024/01/15 03:55:40;;;;;;;0.90;0.90;;;;;;;-2.05;100.00;98040.19;5045346;27;20340;-59
2024/01/15 03:58:07;;;;;;;0.80;0.80;;;;;;;-2.16;100.00;98030.22;5056342;27;20049;-59
2024/01/15 04:00:34;;;;;;;0.80;0.80;;;;;;;-2.18;100.00;98027.78;5044983;27;20116;-58
2024/01/15 04:03:01;;;;;;;0.90;0.90;;;;;;;-2.18;100.00;98027.78;5063779;27;20100;-59
2024/01/15 04:05:28;;;;;;;0.90;0.90;;;;;;;-2.18;100.00;98029.59;5031922;27;20079;-58
2024/01/15 04:07:56;;;;;;;0.90;0.90;;;;;;;-2.24;100.00;98030.38;5025523;27;20054;-59
2024/01/15 04:10:23;;;;;;;0.90;0.90;;;;;;;-2.19;100.00;98027.97;5031960;27;20044;-58
2024/01/15 04:12:50;;;;;;;1.00;1.00;;;;;;;-2.12;100.00;98031.47;5039735;27;20057;-58
2024/01/15 04:15:17;;;;;;;0.93;0.93;;;;;;;-2.02;100.00;98026.69;5044213;27;20402;-58
2024/01/15 04:17:45;;;;;;;0.90;0.90;;;;;;;-2.16;100.00;98030.22;5029003;27;20085;-58
2024/01/15 04:20:12;;;;;;;0.80;0.80;;;;;;;-2.08;100.00;98024.81;5036132;27;20128;-58
2024/01/15 04:22:39;;;;;;;0.98;0.98;;;;;;;-2.09;100.00;98023.22;5044637;27;20052;-58
2024/01/15 04:25:08;;;;;;;0.90;0.90;;;;;;;-2.09;100.00;98019.78;5052219;27;20325;-59
2024/01/15 04:27:35;;;;;;;0.90;0.90;;;;;;;-2.00;100.00;98022.06;5043005;27;20041;-59
2024/01/15 04:30:02;;;;;;;0.90;0.90;;;;;;;-2.00;100.00;98024.69;5055335;27;20050;-59
2024/01/15 04:32:30;;;;;;;0.80;0.80;;;;;;;-1.75;100.00;98021.59;5035493;27;20468;-59
2024/01/15 04:34:57;;;;;;;0.90;0.90;;;;;;;-1.73;100.00;98017.78;5055488;27;20069;-59
2024/01/15 04:37:24;;;;;;;0.90;0.90;;;;;;;-1.76;100.00;98012.13;5024239;27;20471;-58
2024/01/15 04:39:52;;;;;;;0.93;0.93;;;;;;;-1.72;100.00;98023.88;5031769;27;20055;-59
2024/01/15 04:42:21;;;;;;;0.90;0.90;;;;;;;-1.69;100.00;98012.97;5048160;27;20136;-58
2024/01/15 04:44:48;;;;;;;0.80;0.80;;;;;;;-1.76;100.00;98010.28;5034247;27;20092;-59
2024/01/15 04:47:15;;;;;;;0.90;0.90;;;;;;;-1.77;100.00;98010.50;5031638;27;20128;-59
2024/01/15 04:49:42;;;;;;;0.80;0.80;;;;;;;-1.66;100.00;98007.31;5028656;27;20091;-58
2024/01/15 04:52:10;;;;;;;0.70;0.70;;;;;;;-1.68;100.00;98004.06;5035579;27;20040;-58
2024/01/15 04:54:37;;;;;;;1.00;1.00;;;;;;;-1.78;100.00;98001.00;5040819;27;20049;-59
2024/01/15 04:57:04;;;;;;;0.90;0.90;;;;;;;-1.69;100.00;98001.66;5030842;27;20045;-59
2024/01/15 04:59:33;;;;;;;0.88;0.88;;;;;;;-1.67;100.00;98005.72;5034566;27;20597;-59
2024/01/15 05:02:00;;;;;;;0.75;0.75;;;;;;;-1.67;100.00;98000.47;5034990;27;20049;-59
2024/01/15 05:04:27;;;;;;;0.90;0.90;;;;;;;-1.63;100.00;97995.63;5056526;27;20098;-59
2024/01/15 05:06:54;;;;;;;0.90;0.90;;;;;;;-1.50;100.00;98000.13;5045030;27;20041;-59
2024/01/15 05:09:21;;;;;;;0.90;0.90;;;;;;;-1.59;100.00;97991.59;5036569;27;20094;-59
2024/01/15 05:11:48;;;;;;;0.80;0.80;;;;;;;-1.55;100.00;97992.81;5054948;27;20065;-59
2024/01/15 05:14:15;;;;;;;0.90;0.90;;;;;;;-1.61;100.00;97989.16;5047684;27;20038;-59
2024/01/15 05:16:49;;;;;;;0.93;0.93;;;;;;;-1.58;100.00;97987.97;5050949;27;20065;-59
2024/01/15 05:19:16;;;;;;;0.80;0.80;;;;;;;-1.60;100.00;97993.44;5037440;27;20097;-59
2024/01/15 05:21:43;;;;;;;0.70;0.70;;;;;;;-1.68;100.00;97982.25;5049284;27;20169;-59
2024/01/15 05:24:10;;;;;;;0.80;0.80;;;;;;;-1.74;100.00;97979.41;5035036;27;20053;-59
2024/01/15 05:26:37;;;;;;;0.90;0.90;;;;;;;-1.69;100.00;97967.50;5043988;27;20049;-59
2024/01/15 05:29:04;;;;;;;0.93;0.93;;;;;;;-1.64;100.00;97979.03;5053124;27;20578;-59
2024/01/15 05:31:32;;;;;;;1.02;1.02;;;;;;;-1.65;100.00;97969.53;5039279;27;20045;-59
2024/01/15 05:34:00;;;;;;;0.77;0.77;;;;;;;-1.61;100.00;97968.13;5034478;27;20060;-60
2024/01/15 05:36:27;;;;;;;0.80;0.80;;;;;;;-1.62;100.00;97965.69;5053868;27;20133;-59
2024/01/15 05:38:54;;;;;;;0.70;0.70;;;;;;;-1.59;100.00;97970.56;5029005;27;20128;-59
2024/01/15 05:41:21;;;;;;;0.70;0.70;;;;;;;-1.55;100.00;97971.78;5032505;27;20533;-59
2024/01/15 05:43:48;;;;;;;0.80;0.80;;;;;;;-1.50;100.00;97968.59;5046568;27;20052;-58
2024/01/15 05:46:15;;;;;;;1.00;1.00;;;;;;;-1.54;100.00;97968.97;5023165;27;20053;-59
2024/01/15 05:48:42;;;;;;;0.80;0.80;;;;;;;-1.54;100.00;97968.97;5025810;27;20209;-59
2024/01/15 05:51:11;;;;;;;0.75;0.75;;;;;;;-1.50;100.00;97960.69;5040300;27;20056;-59
2024/01/15 05:53:40;;;;;;;0.80;0.80;;;;;;;-1.44;100.00;97968.63;5062775;27;20492;-58
2024/01/15 05:56:07;;;;;;;0.73;0.73;;;;;;;-1.50;100.00;97973.84;5041651;27;20148;-58
2024/01/15 05:58:34;;;;;;;0.88;0.88;;;;;;;-1.49;100.00;97970.22;5023538;27;20038;-59
2024/01/15 06:01:01;;;;;;;1.00;1.00;;;;;;;-1.52;100.00;97979.31;5061693;27;20590;-59
2024/01/15 06:03:29;;;;;;;0.85;0.85;;;;;;;-1.83;100.00;97969.22;5074425;27;20049;-59
2024/01/15 06:05:56;;;;;;;0.80;0.80;;;;;;;-2.03;100.00;97975.16;5041821;27;20322;-59
2024/01/15 06:08:26;;;;;;;0.93;0.93;;;;;;;-2.05;100.00;97971.13;5068563;27;20091;-59
2024/01/15 06:10:53;;;;;;;1.00;1.00;;;;;;;-2.10;100.00;97976.13;5048695;27;20480;-59
2024/01/15 06:13:20;;;;;;;0.77;0.77;;;;;;;-2.12;100.00;97978.13;5027873;27;20439;-59
2024/01/15 06:15:47;;;;;;;1.00;1.00;;;;;;;-2.15;100.00;97981.97;5058665;27;20080;-59
2024/01/15 06:18:14;;;;;;;0.90;0.90;;;;;;;-2.18;100.00;97984.97;5058945;27;20178;-59
2024/01/15 06:20:41;;;;;;;1.00;1.00;;;;;;;-2.17;100.00;97984.78;5044676;27;20076;-59
2024/01/15 06:23:08;;;;;;;0.90;0.90;;;;;;;-2.17;100.00;97978.72;5047288;27;20048;-60
2024/01/15 06:25:37;;;;;;;0.93;0.93;;;;;;;-2.18;100.00;97972.66;5045489;27;20592;-60
2024/01/15 06:28:05;;;;;;;0.90;0.90;;;;;;;-2.20;100.00;97971.22;5052504;27;20045;-58
2024/01/15 06:30:32;;;;;;;0.90;0.90;;;;;;;-2.12;100.00;97970.25;5057164;27;20657;-59
2024/01/15 06:32:59;;;;;;;0.90;0.90;;;;;;;-2.03;100.00;97975.16;5029857;27;20057;-59
2024/01/15 06:35:26;;;;;;;0.82;0.82;;;;;;;-2.06;100.00;97980.81;5043100;27;20120;-58
2024/01/15 06:37:53;;;;;;;1.00;1.00;;;;;;;-2.17;100.00;97976.13;5052150;27;20042;-59
2024/01/15 06:40:20;;;;;;;0.93;0.93;;;;;;;-2.30;100.00;97979.44;5040101;27;20153;-60
2024/01/15 06:42:49;;;;;;;0.80;0.80;;;;;;;-2.32;100.00;97978.00;5020240;27;20041;-59
2024/01/15 06:45:16;;;;;;;1.00;1.00;;;;;;;-2.31;100.00;97971.75;5038383;27;20055;-59
2024/01/15 06:47:43;;;;;;;1.00;1.00;;;;;;;-2.32;100.00;97960.47;5024596;27;20110;-59
2024/01/15 06:50:10;;;;;;;0.90;0.90;;;;;;;-2.32;100.00;97970.94;5034970;27;20140;-60
2024/01/15 06:52:37;;;;;;;0.90;0.90;;;;;;;-2.21;100.00;97973.03;5052101;27;20552;-59
2024/01/15 06:55:05;;;;;;;1.00;1.00;;;;;;;-2.23;100.00;97984.72;5039651;27;20046;-60
2024/01/15 06:57:32;;;;;;;0.98;0.98;;;;;;;-2.25;100.00;97976.22;5046094;27;20045;-59
2024/01/15 07:00:01;;;;;;;0.82;0.82;;;;;;;-2.24;100.00;97972.63;5024687;27;20140;-59
2024/01/15 07:02:30;;;;;;;0.93;0.93;;;;;;;-2.27;100.00;97972.97;5033809;27;20098;-59
2024/01/15 07:04:57;;;;;;;1.00;1.00;;;;;;;-2.25;100.00;97965.72;5042685;27;20095;-59
2024/01/15 07:07:24;;;;;;;0.80;0.80;;;;;;;-2.24;100.00;97977.88;5043031;27;20503;-59
2024/01/15 07:09:52;;;;;;;1.00;1.00;;;;;;;-2.25;100.00;97978.84;5033802;27;20077;-59
2024/01/15 07:12:19;;;;;;;1.00;1.00;;;;;;;-2.24;100.00;97983.13;5028692;27;20128;-59
2024/01/15 07:14:46;;;;;;;0.90;0.90;;;;;;;-2.25;100.00;97976.22;5037755;27;20412;-58
2024/01/15 07:17:16;;;;;;;0.95;0.95;;;;;;;-2.25;100.00;97971.78;5075463;27;20403;-59
2024/01/15 07:19:44;;;;;;;1.00;1.00;;;;;;;-2.30;100.00;97973.38;5039522;27;20041;-59
2024/01/15 07:22:11;;;;;;;1.00;1.00;;;;;;;-2.29;100.00;97980.25;5043574;27;20114;-59
2024/01/15 07:24:38;;;;;;;0.90;0.90;;;;;;;-2.33;100.00;97973.75;5072555;27;20181;-59
2024/01/15 07:27:05;;;;;;;1.00;1.00;;;;;;;-2.33;100.00;97973.75;5030162;27;20402;-59
2024/01/15 07:29:35;;;;;;;1.00;1.00;;;;;;;-2.29;100.00;97970.56;5021744;27;20132;-59
2024/01/15 07:32:03;;;;;;;1.00;1.00;;;;;;;-2.32;100.00;97975.38;5027075;27;20573;-58
2024/01/15 07:34:31;;;;;;;0.80;0.80;;;;;;;-2.39;100.00;97965.66;5045378;27;20078;-58
2024/01/15 07:36:58;;;;;;;0.90;0.90;;;;;;;-2.42;100.00;97966.03;5047472;27;20069;-59
2024/01/15 07:39:25;;;;;;;0.77;0.77;;;;;;;-2.41;100.00;97967.63;5028189;27;20055;-59
2024/01/15 07:41:52;;;;;;;0.90;0.90;;;;;;;-2.30;100.00;97962.88;5024787;27;20049;-59
2024/01/15 07:44:19;;;;;;;0.95;0.95;;;;;;;-2.21;100.00;97956.47;5048677;27;20053;-59
2024/01/15 07:46:47;;;;;;;0.80;0.80;;;;;;;-2.24;100.00;97957.69;5042137;27;20388;-59
2024/01/15 07:49:14;;;;;;;0.90;0.90;;;;;;;-2.18;100.00;97950.84;5071202;27;20157;-60
2024/01/15 07:51:43;;;;;;;1.00;1.00;;;;;;;-2.20;100.00;97948.44;5052829;27;20049;-60
2024/01/15 07:54:11;;;;;;;0.90;0.90;;;;;;;-1.98;100.00;97948.34;5023482;27;20117;-60
2024/01/15 07:56:57;;;;;;;0.90;0.90;;;;;;;-1.90;100.00;97944.75;5030558;27;20403;-60
2024/01/15 07:59:24;;;;;;;0.95;0.95;;;;;;;-1.78;100.00;97957.13;5049099;27;20095;-60
2024/01/15 08:01:52;;;;;;;0.98;0.98;;;;;;;-1.57;100.00;97948.34;5024023;27;20046;-60
2024/01/15 08:04:19;;;;;;;0.90;0.90;;;;;;;-1.54;100.00;97953.22;5031027;27;20046;-59
2024/01/15 08:06:47;;;;;;;0.95;0.95;;;;;;;-1.52;100.00;97951.22;5051527;27;20079;-59
2024/01/15 08:09:14;;;;;;;1.00;1.00;;;;;;;-1.44;100.00;97946.78;5040094;27;20490;-60
2024/01/15 08:11:42;;;;;;;0.98;0.98;;;;;;;-1.41;100.00;97957.72;5029463;28;20136;-59
2024/01/15 08:14:09;;;;;;;0.90;0.90;;;;;;;-1.41;100.00;97946.38;5030270;27;20076;-60
2024/01/15 08:16:36;;;;;;;0.82;0.82;;;;;;;-1.55;100.00;97956.03;5028448;27;20045;-61
2024/01/15 08:19:04;;;;;;;1.00;1.00;;;;;;;-1.64;100.00;97957.22;5033156;27;21514;-59
2024/01/15 08:21:32;;;;;;;0.90;0.90;;;;;;;-1.88;100.00;97961.94;5045502;27;20075;-60
2024/01/15 08:24:01;;;;;;;0.93;0.93;;;;;;;-1.88;100.00;97961.13;5032680;27;20041;-60
2024/01/15 08:26:29;;;;;;;0.90;0.90;;;;;;;-2.10;100.00;97968.25;5025529;27;20056;-59
2024/01/15 08:28:56;;;;;;;1.00;1.00;;;;;;;-2.17;100.00;97958.53;5026137;27;20049;-60
2024/01/15 08:31:23;;;;;;;0.85;0.85;;;;;;;-2.07;100.00;97958.19;5067864;27;20132;-59
2024/01/15 08:33:50;;;;;;;0.90;0.90;;;;;;;-1.89;100.00;97954.25;5023104;27;20161;-59
2024/01/15 08:36:17;;;;;;;1.00;1.00;;;;;;;-1.73;100.00;97948.69;5041968;27;20033;-60
2024/01/15 08:38:44;;;;;;;1.10;1.10;;;;;;;-1.64;100.00;97950.13;5066436;27;20540;-60
2024/01/15 08:41:13;;;;;;;1.00;1.00;;;;;;;-1.43;100.00;97948.41;5031293;27;20059;-58
2024/01/15 08:43:40;;;;;;;1.00;1.00;;;;;;;-1.22;100.00;97961.44;5025278;27;20144;-58
2024/01/15 08:46:08;;;;;;;0.80;0.80;;;;;;;-1.28;100.00;97954.31;5035429;27;20117;-59
2024/01/15 08:48:35;;;;;;;1.00;1.00;;;;;;;-1.22;100.00;97960.59;5027602;27;20610;-60
2024/01/15 08:51:02;;;;;;;0.90;0.90;;;;;;;-1.09;100.00;97953.56;5027120;27;20102;-60
2024/01/15 08:53:29;;;;;;;0.90;0.90;;;;;;;-1.26;100.00;97962.81;5041166;27;20052;-59
2024/01/15 08:55:56;;;;;;;1.00;1.00;;;;;;;-1.14;100.00;97963.06;5027163;27;20048;-58
2024/01/15 08:58:25;;;;;;;0.90;0.90;;;;;;;-1.06;100.00;97965.50;5024649;27;20095;-59
2024/01/15 09:00:52;;;;;;;0.82;0.82;;;;;;;-1.09;100.00;97965.91;5039848;27;20046;-59
2024/01/15 09:03:19;;;;;;;0.85;0.85;;;;;;;-1.11;100.00;97979.25;5050286;27;20078;-60
2024/01/15 09:05:49;;;;;;;0.88;0.88;;;;;;;-1.44;100.00;97981.75;5038413;27;20370;-59
2024/01/15 09:08:27;;;;;;;0.90;0.90;;;;;;;-1.37;100.00;97989.69;5027694;27;20090;-60
2024/01/15 09:10:54;;;;;;;0.85;0.85;;;;;;;-1.21;100.00;97981.44;5043497;27;20082;-59
2024/01/15 09:13:21;;;;;;;0.80;0.80;;;;;;;-1.36;100.00;97983.41;5032589;27;20047;-59
2024/01/15 09:15:50;;;;;;;0.93;0.93;;;;;;;-1.23;100.00;97980.81;5059074;27;20124;-59
2024/01/15 09:18:17;;;;;;;1.00;1.00;;;;;;;-1.06;100.00;97983.91;5065320;27;20132;-59
2024/01/15 09:20:44;;;;;;;0.82;0.82;;;;;;;-1.25;100.00;97980.19;5032055;27;20104;-59
2024/01/15 09:23:12;;;;;;;1.00;1.00;;;;;;;-1.25;100.00;97980.19;5031513;27;20052;-59
2024/01/15 09:25:39;;;;;;;0.88;0.88;;;;;;;-1.25;100.00;97982.81;5046874;27;20560;-60
2024/01/15 09:28:07;;;;;;;0.90;0.90;;;;;;;-1.09;100.00;97985.13;5030352;27;20518;-60
2024/01/15 09:30:35;;;;;;;0.90;0.90;;;;;;;-1.19;100.00;97991.78;5058097;27;20074;-59
2024/01/15 09:33:03;;;;;;;0.90;0.90;;;;;;;-0.95;100.00;97987.78;5042794;27;20041;-59
2024/01/15 09:35:30;;;;;;;0.90;0.90;;;;;;;-0.85;100.00;97980.31;5048921;27;20042;-59
2024/01/15 09:37:58;;;;;;;0.90;0.90;;;;;;;-0.72;100.00;97980.34;5035006;27;20550;-59
2024/01/15 09:40:25;;;;;;;0.90;0.90;;;;;;;-0.73;100.00;97991.88;5047290;27;20235;-59
2024/01/15 09:42:52;;;;;;;0.90;0.90;;;;;;;-0.76;100.00;97986.22;5047625;27;20457;-59
2024/01/15 09:45:19;;;;;;;0.90;0.90;;;;;;;-0.67;100.00;97985.00;5035667;27;20132;-59
2024/01/15 09:47:46;;;;;;;0.90;0.90;;;;;;;-0.69;100.00;97977.31;5042687;27;20244;-59
2024/01/15 09:50:15;;;;;;;1.00;1.00;;;;;;;-0.58;100.00;97988.25;5031876;27;20153;-60
2024/01/15 09:52:43;;;;;;;0.80;0.80;;;;;;;-0.50;100.00;97969.63;5032117;27;20133;-59
2024/01/15 09:55:10;;;;;;;0.77;0.77;;;;;;;-0.59;100.00;97981.38;5040784;27;20130;-60
2024/01/15 09:57:37;;;;;;;0.80;0.80;;;;;;;-0.69;100.00;97977.31;5062515;27;20102;-59
2024/01/15 10:00:06;;;;;;;0.70;0.70;;;;;;;-0.75;100.00;97980.75;5030022;27;20041;-60
2024/01/15 10:02:33;;;;;;;0.80;0.80;;;;;;;-0.82;100.00;97972.03;5081765;27;20481;-59
2024/01/15 10:05:00;;;;;;;0.90;0.90;;;;;;;-1.02;100.00;97960.63;5028627;27;20037;-59
2024/01/15 10:07:29;;;;;;;0.90;0.90;;;;;;;-0.80;100.00;97959.50;5026271;27;20120;-59
2024/01/15 10:09:56;;;;;;;0.80;0.80;;;;;;;-0.79;100.00;97965.56;5043162;27;20094;-59
2024/01/15 10:12:23;;;;;;;0.77;0.77;;;;;;;-0.76;100.00;97954.63;5021426;27;20045;-59
2024/01/15 10:14:51;;;;;;;0.80;0.80;;;;;;;-0.83;100.00;97959.88;5023694;27;20089;-60
2024/01/15 10:17:19;;;;;;;1.00;1.00;;;;;;;-0.72;100.00;97967.19;5030846;27;20048;-59
2024/01/15 10:19:46;;;;;;;1.00;1.00;;;;;;;-0.68;100.00;97959.69;5030965;27;20780;-59
2024/01/15 10:22:14;;;;;;;0.73;0.73;;;;;;;-0.68;100.00;97959.69;5026908;27;20060;-59
2024/01/15 10:24:43;;;;;;;0.90;0.90;;;;;;;-0.42;100.00;97953.66;5059180;27;20038;-59
2024/01/15 10:27:10;;;;;;;1.00;1.00;;;;;;;-0.53;100.00;97948.97;5031081;27;20160;-59
2024/01/15 10:29:37;;;;;;;1.00;1.00;;;;;;;-0.54;100.00;97950.00;5022062;27;20058;-59
2024/01/15 10:32:07;;;;;;;0.80;0.80;;;;;;;-0.58;100.00;97946.94;5049854;27;20424;-59
2024/01/15 10:34:34;;;;;;;0.85;0.85;;;;;;;-0.30;100.00;97938.03;5046023;27;20041;-59
2024/01/15 10:37:01;;;;;;;0.82;0.82;;;;;;;-0.37;100.00;97932.78;5035556;27;20089;-60
2024/01/15 10:39:28;;;;;;;0.90;0.90;;;;;;;-0.04;100.00;97932.72;5037402;27;20041;-60
2024/01/15 10:41:56;;;;;;;0.90;0.90;;;;;;;-0.09;100.00;97935.16;5032176;27;20045;-60
2024/01/15 10:44:23;;;;;;;0.90;0.90;;;;;;;-0.18;100.00;97932.94;5022121;27;20575;-60
2024/01/15 10:46:50;;;;;;;0.80;0.80;;;;;;;-0.22;100.00;97920.19;5033971;27;20133;-60
2024/01/15 10:49:18;;;;;;;0.77;0.77;;;;;;;-0.44;100.00;97916.19;5032820;27;20199;-59
2024/01/15 10:51:45;;;;;;;0.80;0.80;;;;;;;-0.19;100.00;97918.97;5052578;27;20419;-59
2024/01/15 10:54:13;;;;;;;0.90;0.90;;;;;;;0.06;100.00;97929.66;5034311;27;20495;-59
2024/01/15 10:56:40;;;;;;;0.60;0.60;;;;;;;0.14;100.00;97924.16;5047212;27;20153;-59
2024/01/15 10:59:10;;;;;;;0.90;0.90;;;;;;;-0.13;100.00;97923.41;5019664;27;20056;-59
2024/01/15 11:01:37;;;;;;;0.88;0.88;;;;;;;-0.12;100.00;97929.50;5045291;27;20685;-59
2024/01/15 11:04:05;;;;;;;0.80;0.80;;;;;;;-0.20;100.00;97924.44;5034236;27;20060;-59
2024/01/15 11:06:42;;;;;;;0.77;0.77;;;;;;;-0.11;100.00;97925.84;5025582;27;20136;-59
2024/01/15 11:09:09;;;;;;;0.70;0.70;;;;;;;-0.03;100.00;97925.63;5031774;27;20375;-59
2024/01/15 11:11:37;;;;;;;0.90;0.90;;;;;;;0.08;100.00;97919.75;5047245;27;20053;-59
2024/01/15 11:14:04;;;;;;;0.80;0.80;;;;;;;-0.04;100.00;97924.03;5025826;27;20137;-59
2024/01/15 11:16:59;;;;;;;0.80;0.80;;;;;;;0.01;100.00;97921.56;5049221;27;20063;-60
2024/01/15 11:19:26;;;;;;;0.80;0.80;;;;;;;0.09;100.00;97916.06;5038021;27;20038;-60
2024/01/15 11:21:53;;;;;;;0.75;0.75;;;;;;;0.28;100.00;97924.94;5043170;27;20051;-60
2024/01/15 11:24:38;;;;;;;0.75;0.75;;;;;;;0.20;100.00;97920.72;5043317;27;20137;-60
2024/01/15 11:27:07;;;;;;;0.70;0.70;;;;;;;0.37;100.00;97928.94;5034624;27;20424;-60